Kezdőlap
METAR-TAF:

METAR-TAF

Repülőterek :

Waskish Municipal Airport

Waskish, Minnesota, Amerikai Egyesült Államok

földrajzi szélesség: 48-09-15N, földrajzi hosszúság: 094-31-01W, magasság: 360 m

Jelenlegi meteorológiai megfigyelések

A jelentés 33 perccel ezelõtt készült, 16:35 UTC
Északi szél 11 kt széllökések: 15 kt
Hőmérséklet 6°C
Páratartalom 75%
Légköri nyomás 1011 hPa
Látótávolság: 16.1 km
Borult 1500 lábon

METAR: KVWU 231635Z AUTO 35011G15KT 10SM OVC015 06/02 A2985 RMK AO2

Idő: 12:08 (17:08 UTC)


TAF: hiányzik

Meteorológiai megfigyelések és előrejelzések több, mint 4000 repülőtéren (METAR és TAF jelentéseket).

A térképen piros és sárga pontok jelzik az elérhető meteorológiai állomásokat.

Mozgassa az egeret a pont fölött, hogy megjelenjen az állomás neve.

Azután kattintson az időjárási megfigyelések és előrejelzések megtekintéséhez.

A térkép megváltoztatása: kattintson a fekete keresztel jelölt zöld gombra ráközelítéshez, a vonallal jelölt zöld gombra távolításhoz, vagy a zöld nyilakra a szomszédos térképek eléréséhez.


METAR-TAF: